Time;durP1;ratioP1;P1;durP2;ratioP2;P2;SDS_P1;SDS_P2;PMS_P1;PMS_P2;Temp;Humidity;BMP_temperature;BMP_pressure;BME280_temperature;BME280_humidity;BME280_pressure;Samples;Min_cycle;Max_cycle;Signal;HPM_P1;HPM_P2
2022/09/02 00:01:18;;;;;;;5.03;2.70;;;;;;;-145.69;100.00;71434.22;5073843;28;20214;-77
2022/09/02 00:03:45;;;;;;;5.63;3.30;;;;;;;-145.69;100.00;71430.25;5074228;28;20270;-77
2022/09/02 00:06:12;;;;;;;4.47;2.80;;;;;;;-145.69;100.00;71432.25;5074033;28;20260;-78
2022/09/02 00:08:39;;;;;;;7.40;2.87;;;;;;;-145.69;100.00;71430.25;5073944;28;20199;-76
2022/09/02 00:11:07;;;;;;;5.60;3.03;;;;;;;-145.69;100.00;71418.31;5065128;28;20203;-76
2022/09/02 00:13:39;;;;;;;5.30;3.30;;;;;;;-145.69;100.00;71414.34;5054090;28;20291;-76
2022/09/02 00:16:06;;;;;;;5.37;3.00;;;;;;;-145.69;100.00;71406.38;5054082;28;20206;-76
2022/09/02 00:18:34;;;;;;;3.67;2.90;;;;;;;-145.69;100.00;71402.41;5054033;28;20543;-77
2022/09/02 00:21:03;;;;;;;4.63;2.60;;;;;;;-145.69;100.00;71402.41;5053511;28;20203;-77
2022/09/02 00:23:30;;;;;;;4.57;2.80;;;;;;;-145.69;100.00;71408.38;5062860;28;20240;-76
2022/09/02 00:25:56;;;;;;;3.67;2.70;;;;;;;-145.69;100.00;71422.28;5073495;28;20195;-77
2022/09/02 00:28:26;;;;;;;3.53;2.70;;;;;;;-145.69;100.00;71420.31;5073642;28;20207;-76
2022/09/02 00:30:53;;;;;;;5.10;2.60;;;;;;;-145.69;100.00;71414.34;5073593;28;20206;-76
2022/09/02 00:33:19;;;;;;;9.67;2.50;;;;;;;-145.69;100.00;71412.34;5073542;28;20245;-76
2022/09/02 00:35:47;;;;;;;5.07;2.75;;;;;;;-145.69;100.00;71414.34;5073249;28;20448;-77
2022/09/02 00:38:14;;;;;;;5.03;2.50;;;;;;;-145.69;100.00;71408.38;5073316;28;20271;-77
2022/09/02 00:40:44;;;;;;;6.10;2.80;;;;;;;-145.69;100.00;71420.31;5073139;28;20662;-76
2022/09/02 00:43:11;;;;;;;3.03;2.50;;;;;;;-145.69;100.00;71424.28;5073381;28;20252;-77
2022/09/02 00:45:40;;;;;;;4.07;2.93;;;;;;;-145.69;100.00;71430.25;5073459;28;20216;-77
2022/09/02 00:48:08;;;;;;;4.33;3.03;;;;;;;-145.69;100.00;71426.28;5073340;28;20611;-75
2022/09/02 00:50:36;;;;;;;5.60;2.60;;;;;;;-145.69;100.00;71418.31;5073170;28;20235;-76
2022/09/02 00:53:08;;;;;;;3.93;2.30;;;;;;;-145.69;100.00;71420.31;5073256;28;20199;-76
2022/09/02 00:55:40;;;;;;;5.80;2.40;;;;;;;-145.69;100.00;71414.34;5073044;28;20198;-76
2022/09/02 00:58:10;;;;;;;2.83;2.00;;;;;;;-145.69;100.00;71426.28;5073184;28;20198;-76
2022/09/02 01:00:44;;;;;;;4.30;2.50;;;;;;;-145.69;100.00;71416.31;5072766;28;20191;-76
2022/09/02 01:03:14;;;;;;;4.17;2.50;;;;;;;-145.69;100.00;71428.25;5073141;28;20237;-77
2022/09/02 01:05:46;;;;;;;3.00;2.30;;;;;;;-145.69;100.00;71432.25;5073034;28;20672;-76
2022/09/02 01:08:18;;;;;;;5.33;2.60;;;;;;;-145.69;100.00;71444.19;5073220;28;20214;-77
2022/09/02 01:10:45;;;;;;;3.80;2.30;;;;;;;-145.69;100.00;71430.25;5071943;28;20449;-76
2022/09/02 01:13:14;;;;;;;3.87;2.50;;;;;;;-145.69;100.00;71426.28;5073009;28;20214;-76
2022/09/02 01:15:45;;;;;;;3.87;2.10;;;;;;;-145.69;100.00;71420.31;5072779;28;20210;-76
2022/09/02 01:18:20;;;;;;;2.97;2.13;;;;;;;-145.69;100.00;71416.31;5073314;28;20624;-76
2022/09/02 01:20:48;;;;;;;4.97;2.37;;;;;;;-145.69;100.00;71426.28;5064891;28;20230;-76
2022/09/02 01:23:18;;;;;;;2.97;2.00;;;;;;;-145.69;100.00;71422.28;5059107;28;20229;-76
2022/09/02 01:25:45;;;;;;;4.33;2.00;;;;;;;-145.69;100.00;71418.31;5072852;28;20203;-76
2022/09/02 01:28:15;;;;;;;3.30;2.20;;;;;;;-145.69;100.00;71418.31;5072989;28;20210;-76
2022/09/02 01:30:45;;;;;;;3.07;1.77;;;;;;;-145.69;100.00;71414.34;5072161;28;20210;-76
2022/09/02 01:33:12;;;;;;;3.97;2.10;;;;;;;-145.69;100.00;71414.34;5072741;28;20225;-76
2022/09/02 01:35:39;;;;;;;5.63;2.40;;;;;;;-145.69;100.00;71418.31;5072784;28;20214;-78
2022/09/02 01:38:09;;;;;;;4.70;1.97;;;;;;;-145.69;100.00;71414.34;5072757;28;20205;-77
2022/09/02 01:40:37;;;;;;;4.47;2.07;;;;;;;-145.69;100.00;71418.31;5072247;28;20199;-77
2022/09/02 01:43:07;;;;;;;3.83;1.90;;;;;;;-145.69;100.00;71434.22;5072922;28;20633;-77
2022/09/02 01:45:34;;;;;;;5.43;2.07;;;;;;;-145.69;100.00;71422.28;5072705;28;20612;-77
2022/09/02 01:48:01;;;;;;;7.23;1.90;;;;;;;-145.69;100.00;71440.19;5072934;28;20577;-77
2022/09/02 01:50:27;;;;;;;2.73;1.80;;;;;;;-145.69;100.00;71442.19;5072363;28;20230;-77
2022/09/02 01:52:56;;;;;;;3.40;2.17;;;;;;;-145.69;100.00;71444.19;5072415;28;20335;-77
2022/09/02 01:55:23;;;;;;;4.93;2.20;;;;;;;-145.69;100.00;71424.28;5072679;28;20222;-77
2022/09/02 01:57:50;;;;;;;3.53;2.30;;;;;;;-145.69;100.00;71426.28;5072408;28;20654;-77
2022/09/02 02:00:17;;;;;;;4.50;1.80;;;;;;;-145.69;100.00;71434.22;5072700;28;20242;-78
2022/09/02 02:02:44;;;;;;;4.63;2.67;;;;;;;-145.69;100.00;71426.28;5072454;28;20284;-77
2022/09/02 02:05:10;;;;;;;3.50;2.20;;;;;;;-145.69;100.00;71428.25;5072339;28;20256;-75
2022/09/02 02:07:37;;;;;;;4.57;2.63;;;;;;;-145.69;100.00;71430.25;5072687;28;20203;-77
2022/09/02 02:10:06;;;;;;;4.47;2.30;;;;;;;-145.69;100.00;71434.22;5072155;28;20633;-77
2022/09/02 02:12:33;;;;;;;5.80;2.40;;;;;;;-145.69;100.00;71432.25;5062405;28;20242;-78
2022/09/02 02:15:03;;;;;;;5.13;2.00;;;;;;;-145.69;100.00;71434.22;5053292;28;20207;-76
2022/09/02 02:17:29;;;;;;;3.27;2.20;;;;;;;-145.69;100.00;71448.16;5056164;28;20200;-75
2022/09/02 02:19:56;;;;;;;4.80;2.47;;;;;;;-145.69;100.00;71446.16;5056022;28;20650;-76
2022/09/02 02:22:22;;;;;;;6.13;2.43;;;;;;;-145.69;100.00;71446.16;5057205;28;20239;-78
2022/09/02 02:24:52;;;;;;;5.40;2.47;;;;;;;-145.69;100.00;71438.22;5076074;28;20199;-77
2022/09/02 02:27:18;;;;;;;2.90;2.20;;;;;;;-145.69;100.00;71446.16;5076069;28;20203;-77
2022/09/02 02:29:47;;;;;;;6.10;2.50;;;;;;;-145.69;100.00;71454.13;5075922;28;20205;-77
2022/09/02 02:32:17;;;;;;;4.47;2.50;;;;;;;-145.69;100.00;71460.09;5075834;28;20257;-76
2022/09/02 02:34:48;;;;;;;2.97;2.20;;;;;;;-145.69;100.00;71458.09;5075978;28;20285;-77
2022/09/02 02:37:15;;;;;;;3.97;2.53;;;;;;;-145.69;100.00;71460.09;5075978;28;20203;-78
2022/09/02 02:39:43;;;;;;;4.23;2.17;;;;;;;-145.69;100.00;71462.09;5075970;28;20203;-78
2022/09/02 02:42:12;;;;;;;3.47;2.50;;;;;;;-145.69;100.00;71472.03;5075789;28;20238;-78
2022/09/02 02:44:39;;;;;;;6.13;2.50;;;;;;;-145.69;100.00;71474.03;5075449;28;20561;-78
2022/09/02 02:47:06;;;;;;;6.27;2.97;;;;;;;-145.69;100.00;71470.06;5075707;28;20199;-78
2022/09/02 02:49:37;;;;;;;6.07;2.93;;;;;;;-145.69;100.00;71464.09;5075560;28;20226;-78
2022/09/02 02:52:04;;;;;;;4.83;2.40;;;;;;;-145.69;100.00;71487.97;5075764;28;20335;-78
2022/09/02 02:54:30;;;;;;;2.93;2.33;;;;;;;-145.69;100.00;71487.97;5075042;28;20206;-76
2022/09/02 02:56:57;;;;;;;4.17;2.43;;;;;;;-145.69;100.00;71485.97;5075459;28;20203;-78
2022/09/02 02:59:24;;;;;;;7.00;2.50;;;;;;;-145.69;100.00;71495.91;5075242;28;20568;-77
2022/09/02 03:01:51;;;;;;;7.07;2.53;;;;;;;-145.69;100.00;71491.94;5074995;28;20187;-78
2022/09/02 03:04:18;;;;;;;2.70;2.27;;;;;;;-145.69;100.00;71501.88;5075173;28;20248;-77
2022/09/02 03:06:45;;;;;;;4.77;2.60;;;;;;;-145.69;100.00;71511.84;5075229;28;20662;-77
2022/09/02 03:09:12;;;;;;;7.07;2.53;;;;;;;-145.69;100.00;71487.97;5075295;28;20202;-76
2022/09/02 03:11:39;;;;;;;3.97;2.60;;;;;;;-145.69;100.00;71493.94;5075311;28;20227;-77
2022/09/02 03:14:06;;;;;;;3.27;2.00;;;;;;;-145.69;100.00;71487.97;5075048;28;20225;-75
2022/09/02 03:16:36;;;;;;;6.80;2.10;;;;;;;-145.69;100.00;71491.94;5075331;28;20203;-77
2022/09/02 03:19:03;;;;;;;5.03;2.20;;;;;;;-145.69;100.00;71499.91;5075205;28;20294;-75
2022/09/02 03:21:30;;;;;;;2.47;1.90;;;;;;;-145.69;100.00;71501.88;5074784;28;20676;-77
2022/09/02 03:23:57;;;;;;;6.17;2.83;;;;;;;-145.69;100.00;71483.97;5074694;28;20231;-78
2022/09/02 03:26:25;;;;;;;4.60;2.70;;;;;;;-145.69;100.00;71474.03;5073698;28;20253;-77
2022/09/02 03:28:55;;;;;;;5.20;2.13;;;;;;;-145.69;100.00;71478.00;5074961;28;20195;-76
2022/09/02 03:31:23;;;;;;;2.93;2.20;;;;;;;-145.69;100.00;71474.03;5075092;28;20224;-78
2022/09/02 03:33:50;;;;;;;3.80;2.50;;;;;;;-145.69;100.00;71478.00;5074980;28;20294;-77
2022/09/02 03:36:22;;;;;;;4.23;2.13;;;;;;;-145.69;100.00;71499.91;5074677;28;20658;-77
2022/09/02 03:38:48;;;;;;;2.57;1.80;;;;;;;-145.69;100.00;71511.84;5074793;28;20206;-77
2022/09/02 03:41:16;;;;;;;5.60;2.20;;;;;;;-145.69;100.00;71495.91;5074875;28;20199;-76
2022/09/02 03:43:43;;;;;;;4.43;2.20;;;;;;;-145.69;100.00;71501.88;5074680;28;20234;-77
2022/09/02 03:46:09;;;;;;;3.07;1.97;;;;;;;-145.69;100.00;71501.88;5074607;28;20221;-77
2022/09/02 03:48:36;;;;;;;3.23;1.90;;;;;;;-145.69;100.00;71505.88;5074119;28;20199;-76
2022/09/02 03:51:04;;;;;;;8.37;2.30;;;;;;;-145.69;100.00;71509.84;5074119;28;20191;-76
2022/09/02 03:53:31;;;;;;;2.20;1.80;;;;;;;-145.69;100.00;71515.81;5074255;28;20202;-77
2022/09/02 03:55:57;;;;;;;4.53;2.30;;;;;;;-145.69;100.00;71509.84;5074377;28;20209;-76
2022/09/02 03:58:25;;;;;;;3.07;1.83;;;;;;;-145.69;100.00;71505.88;5074459;28;20206;-76
2022/09/02 04:00:53;;;;;;;2.13;1.77;;;;;;;-145.69;100.00;71501.88;5074073;28;20565;-76
2022/09/02 04:03:21;;;;;;;7.27;3.13;;;;;;;-145.69;100.00;71497.91;5068018;28;20258;-76
2022/09/02 04:05:48;;;;;;;2.90;2.00;;;;;;;-145.69;100.00;71499.91;5054120;28;20226;-77
2022/09/02 04:08:14;;;;;;;2.50;1.90;;;;;;;-145.69;100.00;71507.84;5054316;28;20210;-75
2022/09/02 04:10:43;;;;;;;4.57;2.23;;;;;;;-145.69;100.00;71493.94;5054201;28;20206;-77
2022/09/02 04:13:10;;;;;;;2.60;1.70;;;;;;;-145.69;100.00;71503.88;5054141;28;20204;-78
2022/09/02 04:15:41;;;;;;;2.97;2.17;;;;;;;-145.69;100.00;71501.88;5053800;28;20539;-77
2022/09/02 04:18:08;;;;;;;2.53;1.70;;;;;;;-145.69;100.00;71499.91;5054052;28;20210;-77
2022/09/02 04:20:37;;;;;;;7.73;2.57;;;;;;;-145.69;100.00;71511.84;5054082;28;20199;-76
2022/09/02 04:23:03;;;;;;;2.87;2.20;;;;;;;-145.69;100.00;71517.81;5073851;28;20232;-76
2022/09/02 04:25:30;;;;;;;4.70;1.90;;;;;;;-145.69;100.00;71507.84;5073861;28;20210;-76
2022/09/02 04:27:57;;;;;;;3.30;2.00;;;;;;;-145.69;100.00;71515.81;5073708;28;20225;-76
2022/09/02 04:30:26;;;;;;;3.80;2.30;;;;;;;-145.69;100.00;71511.84;5073588;28;20203;-75
2022/09/02 04:32:54;;;;;;;4.33;2.27;;;;;;;-145.69;100.00;71505.88;5073508;28;20561;-78
2022/09/02 04:35:22;;;;;;;4.20;2.27;;;;;;;-145.69;100.00;71507.84;5073482;28;20253;-78
2022/09/02 04:37:48;;;;;;;5.07;2.27;;;;;;;-145.69;100.00;71519.81;5073099;28;20191;-77
2022/09/02 04:40:15;;;;;;;4.57;1.93;;;;;;;-145.69;100.00;71521.78;5073419;28;20210;-78
2022/09/02 04:42:41;;;;;;;3.63;2.07;;;;;;;-145.69;100.00;71517.81;5073333;28;20230;-78
2022/09/02 04:45:09;;;;;;;3.10;2.13;;;;;;;-145.69;100.00;71505.88;5073189;28;20198;-77
2022/09/02 04:47:36;;;;;;;2.87;2.00;;;;;;;-145.69;100.00;71513.81;5073290;28;20206;-76
2022/09/02 04:50:05;;;;;;;4.53;2.17;;;;;;;-145.69;100.00;71521.78;5073090;28;20230;-76
2022/09/02 04:52:31;;;;;;;3.63;1.90;;;;;;;-145.69;100.00;71507.84;5073356;28;20281;-77
2022/09/02 04:54:58;;;;;;;4.83;1.97;;;;;;;-145.69;100.00;71511.84;5073313;28;20198;-75
2022/09/02 04:57:25;;;;;;;6.30;2.00;;;;;;;-145.69;100.00;71517.81;5073324;28;20206;-77
2022/09/02 04:59:51;;;;;;;2.87;1.83;;;;;;;-145.69;100.00;71529.75;5073068;28;20282;-76
2022/09/02 05:02:19;;;;;;;7.80;2.30;;;;;;;-145.69;100.00;71517.81;5073121;28;20569;-76
2022/09/02 05:04:46;;;;;;;3.65;2.08;;;;;;;-145.69;100.00;71509.84;5072452;28;20503;-76
2022/09/02 05:07:14;;;;;;;3.40;2.23;;;;;;;-145.69;100.00;71495.91;5073179;28;20205;-76
2022/09/02 05:09:41;;;;;;;3.07;2.27;;;;;;;-145.69;100.00;71499.91;5073057;28;20289;-76
2022/09/02 05:12:10;;;;;;;5.10;1.87;;;;;;;-145.69;100.00;71499.91;5073069;28;20555;-76
2022/09/02 05:14:37;;;;;;;3.97;2.00;;;;;;;-145.69;100.00;71489.94;5072823;28;20229;-76
2022/09/02 05:17:03;;;;;;;2.83;2.10;;;;;;;-145.69;100.00;71482.00;5072883;28;20252;-75
2022/09/02 05:19:30;;;;;;;4.93;2.13;;;;;;;-145.69;100.00;71478.00;5072999;28;20297;-75
2022/09/02 05:21:58;;;;;;;4.37;2.20;;;;;;;-145.69;100.00;71482.00;5073075;28;20229;-75
2022/09/02 05:24:26;;;;;;;5.90;2.50;;;;;;;-145.69;100.00;71487.97;5072569;28;20693;-78
2022/09/02 05:26:53;;;;;;;7.33;2.20;;;;;;;-145.69;100.00;71472.03;5072930;28;20207;-76
2022/09/02 05:29:21;;;;;;;4.10;2.57;;;;;;;-145.69;100.00;71464.09;5072578;28;20202;-77
2022/09/02 05:31:48;;;;;;;6.10;2.70;;;;;;;-145.69;100.00;71448.16;5072663;28;20654;-77
2022/09/02 05:34:15;;;;;;;6.03;2.50;;;;;;;-145.69;100.00;71458.09;5072722;28;20657;-76
2022/09/02 05:36:42;;;;;;;4.80;2.73;;;;;;;-145.69;100.00;71460.09;5072588;28;20260;-76
2022/09/02 05:39:09;;;;;;;8.30;2.73;;;;;;;-145.69;100.00;71462.09;5072644;28;20218;-76
2022/09/02 05:41:39;;;;;;;2.90;2.30;;;;;;;-145.69;100.00;71456.13;5072769;28;20202;-76
2022/09/02 05:44:07;;;;;;;3.20;2.13;;;;;;;-145.69;100.00;71462.09;5072556;28;20234;-76
2022/09/02 05:46:36;;;;;;;5.23;2.60;;;;;;;-145.69;100.00;71458.09;5072355;28;20668;-75
2022/09/02 05:49:07;;;;;;;6.17;2.73;;;;;;;-145.69;100.00;71452.16;5072612;28;20632;-76
2022/09/02 05:51:39;;;;;;;4.85;2.60;;;;;;;-145.69;100.00;71452.16;5076116;28;20442;-76
2022/09/02 05:54:12;;;;;;;6.70;2.20;;;;;;;-145.69;100.00;71450.16;5076608;28;20206;-77
2022/09/02 05:56:42;;;;;;;3.67;2.43;;;;;;;-145.69;100.00;71436.22;5076791;28;20290;-77
2022/09/02 05:59:09;;;;;;;3.80;2.23;;;;;;;-145.69;100.00;71406.38;5076745;28;20202;-76
2022/09/02 06:01:42;;;;;;;3.80;2.20;;;;;;;-145.69;100.00;71418.31;5076447;28;20198;-78
2022/09/02 06:04:12;;;;;;;3.90;2.00;;;;;;;-145.69;100.00;71402.41;5060786;28;20697;-75
2022/09/02 06:06:40;;;;;;;7.20;2.47;;;;;;;-145.69;100.00;71396.44;5056306;28;20210;-76
2022/09/02 06:09:12;;;;;;;5.47;2.17;;;;;;;-145.69;100.00;71380.50;5056498;28;20286;-76
2022/09/02 06:11:43;;;;;;;2.50;2.03;;;;;;;-145.69;100.00;71378.50;5056504;28;20195;-80
2022/09/02 06:14:11;;;;;;;2.87;2.13;;;;;;;-145.69;100.00;71366.56;5058556;28;20298;-77
2022/09/02 06:16:42;;;;;;;4.73;2.30;;;;;;;-145.69;100.00;71362.59;5076371;28;20202;-76
2022/09/02 06:19:11;;;;;;;3.87;2.13;;;;;;;-145.69;100.00;71358.63;5075992;28;20597;-76
2022/09/02 06:21:38;;;;;;;4.38;2.33;;;;;;;-145.69;100.00;71350.66;5076393;28;20206;-75
2022/09/02 06:24:11;;;;;;;2.53;1.87;;;;;;;-145.69;100.00;71326.78;5076068;28;20233;-77
2022/09/02 06:26:40;;;;;;;2.53;1.87;;;;;;;-145.69;100.00;71312.84;5076226;28;20202;-78
2022/09/02 06:29:07;;;;;;;5.28;2.20;;;;;;;-145.69;100.00;71314.84;5075533;28;20442;-76
2022/09/02 06:31:34;;;;;;;3.87;2.00;;;;;;;-145.69;100.00;71306.88;5075926;28;20653;-78
2022/09/02 06:34:04;;;;;;;4.65;1.98;;;;;;;-145.69;100.00;71294.94;5075841;28;20199;-76
2022/09/02 06:36:31;;;;;;;6.50;2.45;;;;;;;-145.69;100.00;71281.00;5075783;28;20202;-77
2022/09/02 06:39:01;;;;;;;5.68;1.75;;;;;;;-145.69;100.00;71271.06;5075737;28;20667;-76
2022/09/02 06:41:30;;;;;;;2.42;1.67;;;;;;;-145.69;100.00;71259.13;5075879;28;20203;-77
2022/09/02 06:44:00;;;;;;;4.20;1.83;;;;;;;-145.69;100.00;71239.22;5075345;28;20257;-77
2022/09/02 06:46:29;;;;;;;5.10;1.80;;;;;;;-145.69;100.00;71227.28;5055295;28;20210;-77
2022/09/02 06:48:56;;;;;;;3.22;1.75;;;;;;;-145.69;98.55;71213.38;5071967;28;20589;-77
2022/09/02 06:51:25;;;;;;;3.65;2.00;;;;;;;-145.69;99.30;71195.47;5075676;28;20293;-76
2022/09/02 06:53:56;;;;;;;3.83;1.83;;;;;;;-145.69;98.96;71193.47;5075483;28;20264;-77
2022/09/02 06:56:22;;;;;;;5.60;1.67;;;;;;;-145.69;95.90;71165.59;5075348;28;20202;-78
2022/09/02 06:58:49;;;;;;;2.20;1.75;;;;;;;-145.69;94.71;71151.69;5075368;28;20222;-77
2022/09/02 07:01:20;;;;;;;2.35;1.60;;;;;;;-145.69;96.55;71141.72;5075065;28;20199;-76
2022/09/02 07:06:37;;;;;;;3.40;2.00;;;;;;;-145.69;94.88;71125.81;5075162;28;20190;-77
2022/09/02 07:09:04;;;;;;;3.55;1.60;;;;;;;-145.69;95.03;71115.88;5074947;28;20222;-78
2022/09/02 07:11:32;;;;;;;7.05;1.80;;;;;;;-145.69;95.82;71103.94;5075151;28;20199;-78
2022/09/02 07:14:00;;;;;;;2.67;1.60;;;;;;;-145.69;95.39;71101.94;5075225;28;20289;-79
2022/09/02 07:16:33;;;;;;;4.13;1.55;;;;;;;-145.69;96.21;71090.00;5075345;28;20210;-79
2022/09/02 07:19:03;;;;;;;3.13;1.80;;;;;;;-145.69;97.16;71074.09;5074985;28;20596;-79
2022/09/02 07:21:35;;;;;;;2.53;1.75;;;;;;;-145.69;97.46;71092.00;5074998;28;20352;-79
2022/09/02 07:24:02;;;;;;;2.30;1.70;;;;;;;-145.69;100.00;71088.00;5068952;28;20817;-79
2022/09/02 07:26:29;;;;;;;3.97;1.60;;;;;;;-145.69;96.64;71093.97;5060523;28;20249;-79
2022/09/02 07:28:56;;;;;;;2.20;1.77;;;;;;;-145.69;96.97;71078.06;5070184;28;20252;-80
2022/09/02 07:31:23;;;;;;;2.25;1.83;;;;;;;-145.69;100.00;71050.22;5074774;28;20661;-79
2022/09/02 07:33:50;;;;;;;3.65;1.55;;;;;;;-145.69;94.89;71062.13;5069342;28;20271;-78
2022/09/02 07:36:20;;;;;;;2.78;1.65;;;;;;;-145.69;93.96;71028.31;5054726;28;20199;-79
2022/09/02 07:38:47;;;;;;;2.28;1.50;;;;;;;-145.69;92.18;71008.41;5054848;28;20265;-79
2022/09/02 07:41:13;;;;;;;2.50;1.90;;;;;;;-145.69;94.88;70998.47;5074224;28;20621;-78
2022/09/02 07:43:41;;;;;;;5.70;2.10;;;;;;;-145.69;96.49;70996.47;5074681;28;20218;-79
2022/09/02 07:46:07;;;;;;;4.05;1.60;;;;;;;-145.69;93.86;70980.56;5074494;28;20207;-80
2022/09/02 07:48:35;;;;;;;4.78;1.52;;;;;;;-145.69;96.35;70960.66;5074370;28;20668;-79
2022/09/02 07:51:04;;;;;;;2.38;1.55;;;;;;;-145.69;92.90;70968.63;5074015;28;20256;-80
2022/09/02 07:53:31;;;;;;;5.25;1.60;;;;;;;-145.69;90.00;70966.63;5074154;28;20209;-78
2022/09/02 07:55:58;;;;;;;2.50;1.98;;;;;;;-145.69;92.41;70944.75;5074489;28;20198;-78
2022/09/02 07:58:26;;;;;;;4.25;1.60;;;;;;;-145.69;85.75;70924.84;5074260;28;20658;-77
2022/09/02 08:00:54;;;;;;;3.65;1.50;;;;;;;-145.69;84.76;70932.81;5074316;28;20281;-76
2022/09/02 08:03:21;;;;;;;2.92;1.60;;;;;;;-145.69;85.80;70912.91;5072488;28;20214;-77
2022/09/02 08:05:48;;;;;;;2.75;1.55;;;;;;;-145.69;85.39;70912.91;5056431;28;20199;-77
2022/09/02 08:08:19;;;;;;;2.78;1.55;;;;;;;-145.69;84.80;70897.00;5054294;28;20278;-77
2022/09/02 08:10:45;;;;;;;2.95;1.75;;;;;;;-145.69;82.25;70885.06;5066848;28;20666;-77
2022/09/02 08:13:20;;;;;;;3.20;1.77;;;;;;;-145.69;83.70;70904.97;5073220;28;20282;-77
2022/09/02 08:15:49;;;;;;;2.08;1.40;;;;;;;-145.69;84.38;70885.06;5073744;28;20202;-77
2022/09/02 08:18:29;;;;;;;3.25;1.73;;;;;;;-145.69;85.38;70881.09;5073425;28;20202;-77
2022/09/02 08:20:56;;;;;;;2.55;1.67;;;;;;;-145.69;84.00;70881.09;5073827;28;20221;-76
2022/09/02 08:23:35;;;;;;;2.63;1.40;;;;;;;-145.69;85.35;70867.16;5073809;28;20198;-79
2022/09/02 08:26:10;;;;;;;1.70;1.60;;;;;;;-145.69;85.72;70857.22;5073813;28;20205;-79
2022/09/02 08:28:38;;;;;;;2.25;1.60;;;;;;;-145.69;82.02;70841.28;5073568;28;20293;-78
2022/09/02 08:31:06;;;;;;;2.25;1.40;;;;;;;-145.69;85.02;70843.28;5073668;28;20237;-76
2022/09/02 08:33:35;;;;;;;4.85;1.42;;;;;;;-145.69;82.98;70849.25;5073751;28;20286;-76
2022/09/02 08:36:10;;;;;;;5.95;2.00;;;;;;;-145.69;83.95;70843.28;5070282;28;20249;-81
2022/09/02 08:38:38;;;;;;;1.60;1.42;;;;;;;-145.69;81.71;70831.34;5073495;28;20198;-77
2022/09/02 08:41:12;;;;;;;2.75;1.50;;;;;;;-145.69;81.27;70807.47;5053171;28;20203;-77
2022/09/02 08:43:42;;;;;;;1.63;1.40;;;;;;;-145.69;79.71;70805.47;5053440;28;20222;-76
2022/09/02 08:46:13;;;;;;;5.43;1.50;;;;;;;-145.69;81.69;70801.50;5053504;28;20210;-76
2022/09/02 08:48:44;;;;;;;3.78;1.83;;;;;;;-145.69;78.77;70797.53;5053444;28;20206;-79
2022/09/02 08:51:16;;;;;;;3.97;1.60;;;;;;;-145.69;76.81;70789.56;5053135;28;20199;-78
2022/09/02 08:53:56;;;;;;;1.50;1.25;;;;;;;-145.69;80.74;70783.59;5053507;28;20207;-76
2022/09/02 08:56:27;;;;;;;2.28;1.40;;;;;;;-145.69;81.09;70777.63;5053154;28;20302;-76
2022/09/02 08:58:55;;;;;;;2.67;1.60;;;;;;;-145.69;79.00;70757.72;5052388;28;20486;-78
2022/09/02 09:01:32;;;;;;;3.90;1.52;;;;;;;-145.69;76.43;70759.72;5053058;28;20195;-79
2022/09/02 09:04:17;;;;;;;3.13;1.35;;;;;;;-145.69;77.94;70753.75;5052760;28;20578;-80
2022/09/02 09:07:04;;;;;;;1.75;1.30;;;;;;;-145.69;77.76;70741.81;5053305;28;20211;-79
2022/09/02 09:09:45;;;;;;;2.97;1.40;;;;;;;-145.69;73.55;70743.81;5060219;28;20648;-80
2022/09/02 09:12:22;;;;;;;4.47;1.70;;;;;;;-145.69;75.46;70741.81;5072741;28;20205;-78
2022/09/02 09:14:53;;;;;;;2.10;1.40;;;;;;;-145.69;76.16;70749.78;5072846;28;20198;-79
2022/09/02 09:17:29;;;;;;;3.42;1.42;;;;;;;-145.69;78.33;70747.78;5073057;28;20557;-78
2022/09/02 09:20:01;;;;;;;2.03;1.40;;;;;;;-145.69;79.90;70743.81;5072842;28;20198;-78
2022/09/02 09:22:36;;;;;;;1.98;1.60;;;;;;;-145.69;79.14;70725.91;5072890;28;20213;-78
2022/09/02 09:25:11;;;;;;;2.15;1.50;;;;;;;-145.69;75.52;70713.97;5072913;28;20231;-79
2022/09/02 09:27:40;;;;;;;2.70;1.50;;;;;;;-145.69;76.72;70721.91;5073000;28;20230;-79
2022/09/02 09:30:08;;;;;;;1.95;1.30;;;;;;;-145.69;75.00;70694.06;5072666;28;20213;-76
2022/09/02 09:32:45;;;;;;;3.05;1.55;;;;;;;-145.69;71.89;70696.06;5072619;28;20753;-78
2022/09/02 09:35:13;;;;;;;4.35;1.73;;;;;;;-145.69;70.49;70704.00;5072701;28;20252;-79
2022/09/02 09:37:46;;;;;;;2.40;1.48;;;;;;;-145.69;76.93;70690.09;5072655;28;20198;-80
2022/09/02 09:40:30;;;;;;;7.38;1.92;;;;;;;-145.69;72.98;70698.03;5072706;28;20198;-78
2022/09/02 09:43:00;;;;;;;1.67;1.33;;;;;;;-145.69;71.09;70700.03;5072759;28;20599;-78
2022/09/02 09:45:32;;;;;;;3.38;1.70;;;;;;;-145.69;73.47;70684.13;5072334;28;20222;-78
2022/09/02 09:48:26;;;;;;;2.20;1.50;;;;;;;-145.69;71.10;70668.19;5072825;28;20203;-77
2022/09/02 09:51:24;;;;;;;2.25;1.30;;;;;;;-145.69;65.67;70656.25;5072751;28;20218;-80
2022/09/02 09:53:53;;;;;;;1.77;1.38;;;;;;;-145.69;74.97;70644.31;5072665;28;20260;-81
2022/09/02 09:56:35;;;;;;;6.45;1.42;;;;;;;-145.69;65.02;70644.31;5072656;28;20234;-81
2022/09/02 09:59:09;;;;;;;1.58;1.35;;;;;;;-145.69;72.78;70632.38;5068255;28;20198;-80
2022/09/02 10:01:36;;;;;;;2.42;1.30;;;;;;;-145.69;66.08;70626.41;5052576;28;20250;-80
2022/09/02 10:04:06;;;;;;;5.60;1.75;;;;;;;-145.69;64.05;70626.41;5057584;28;20680;-78
2022/09/02 10:06:52;;;;;;;2.28;1.60;;;;;;;-145.69;69.48;70618.47;5072550;28;20676;-78
2022/09/02 10:09:34;;;;;;;2.30;1.20;;;;;;;-145.69;72.02;70606.53;5072387;28;20838;-79
2022/09/02 10:12:07;;;;;;;1.67;1.58;;;;;;;-145.69;62.52;70622.44;5069289;28;20203;-79
2022/09/02 10:14:36;;;;;;;1.70;1.33;;;;;;;-145.69;71.27;70622.44;5073062;28;20260;-80
2022/09/02 10:17:33;;;;;;;3.55;1.20;;;;;;;-145.69;72.26;70602.56;5073351;28;20253;-76
2022/09/02 10:20:07;;;;;;;5.68;1.45;;;;;;;-145.69;69.76;70602.56;5072624;28;20608;-78
2022/09/02 10:23:10;;;;;;;3.83;1.50;;;;;;;-145.69;69.83;70562.75;5072702;28;20293;-80
2022/09/02 10:26:03;;;;;;;3.13;1.55;;;;;;;-145.69;69.04;70546.84;5071942;28;20303;-80
2022/09/02 10:28:57;;;;;;;1.83;1.25;;;;;;;-145.69;64.78;70538.88;5072340;28;20612;-79
2022/09/02 10:31:30;;;;;;;2.17;1.40;;;;;;;-145.69;69.33;70530.94;5072089;28;20205;-77
2022/09/02 10:34:13;;;;;;;2.03;1.40;;;;;;;-145.69;66.18;70515.00;5072245;28;20202;-77
2022/09/02 10:37:00;;;;;;;4.47;1.50;;;;;;;-145.69;66.72;70501.09;5073984;28;20218;-77
2022/09/02 10:39:40;;;;;;;3.38;1.50;;;;;;;-145.69;64.79;70495.13;5075763;28;20230;-76
2022/09/02 10:42:21;;;;;;;1.63;1.50;;;;;;;-145.69;62.88;70483.19;5076091;28;20256;-79
2022/09/02 10:45:02;;;;;;;1.88;1.30;;;;;;;-145.69;62.21;70485.16;5075739;28;20237;-77
2022/09/02 10:47:36;;;;;;;1.73;1.17;;;;;;;-145.69;68.15;70463.28;5075760;28;20202;-78
2022/09/02 10:50:13;;;;;;;1.30;1.20;;;;;;;-145.69;65.28;70475.22;5075377;28;20226;-79
2022/09/02 10:53:03;;;;;;;5.68;1.40;;;;;;;-145.69;64.50;70439.41;5075552;28;20716;-80
2022/09/02 10:55:41;;;;;;;2.05;1.55;;;;;;;-145.69;69.39;70423.50;5075603;28;20289;-78
2022/09/02 10:58:20;;;;;;;2.25;1.20;;;;;;;-145.69;68.82;70431.47;5075634;28;20226;-77
2022/09/02 11:00:53;;;;;;;2.80;1.50;;;;;;;-145.69;66.90;70425.50;5075321;28;20240;-78
2022/09/02 11:03:25;;;;;;;1.80;1.30;;;;;;;-145.69;61.89;70409.56;5075424;28;20564;-77
2022/09/02 11:06:03;;;;;;;2.45;1.50;;;;;;;-145.69;59.85;70429.47;5075286;28;20222;-77
2022/09/02 11:08:38;;;;;;;2.28;1.25;;;;;;;-145.69;62.08;70421.50;5075343;28;20202;-77
2022/09/02 11:11:14;;;;;;;3.25;1.60;;;;;;;-145.69;58.15;70413.56;5075317;28;20233;-78
2022/09/02 11:13:54;;;;;;;1.83;1.20;;;;;;;-145.69;57.63;70417.53;5075164;28;20238;-76
2022/09/02 11:16:28;;;;;;;2.28;1.40;;;;;;;-145.69;55.20;70429.47;5075125;28;20710;-79
2022/09/02 11:19:02;;;;;;;2.60;1.30;;;;;;;-145.69;56.78;70415.53;5074611;28;20442;-77
2022/09/02 11:21:50;;;;;;;4.03;1.75;;;;;;;-145.69;61.34;70403.59;5074914;28;20203;-78
2022/09/02 11:24:26;;;;;;;1.80;1.30;;;;;;;-145.69;59.28;70397.63;5074815;28;20206;-79
2022/09/02 11:26:57;;;;;;;2.95;1.50;;;;;;;-145.69;58.05;70403.59;5075316;28;20260;-78
2022/09/02 11:29:33;;;;;;;3.40;1.27;;;;;;;-145.69;52.44;70411.56;5074832;28;20249;-78